PAUN/UNK METAR and TAF weather

Enter ICAO airport designator
Station Type Date Time Source
PAUN METAR 2019/06/16 03:56 UTC NOAA

PAUN 160356Z AUTO 10011KT 10SM SCT044 BKN055 18/09 A2977 RMK AO2 SLP084 T01830089


Station Type Date Time Source
PAUN Decoded METAR 2019/06/16 03:56 UTC NOAA

Unalakleet, AK, United States (PAUN) 63-53N 160-48W 6M
Jun 15, 2019 - 11:56 PM EDT / 2019.06.16 0356 UTC
Wind: from the E (100 degrees) at 13 MPH (11 KT):0
Visibility: 10 mile(s):0
Sky conditions: mostly cloudy
Temperature: 64.9 F (18.3 C)
Dew Point: 48.0 F (8.9 C)
Relative Humidity: 54%
Pressure (altimeter): 29.77 in. Hg (1008 hPa)
ob: PAUN 160356Z AUTO 10011KT 10SM SCT044 BKN055 18/09 A2977 RMK AO2 SLP084 T01830089
cycle: 4

Station Type Date Time Source
PAUN TAF 2019/06/15 18:42 UTC NOAA

TAF PAUN 151739Z 1518/1618 06012KT P6SM SCT050
FM152200 10018G25KT P6SM FEW060 BKN100
FM160800 08004KT P6SM FEW060 SCT100

Example: see airport list